createdAt,value
2022-09-24T00:04:01.405Z,9.54
2022-09-24T00:09:02.391Z,9.50
2022-09-24T00:14:06.109Z,9.54
2022-09-24T00:19:07.134Z,9.53
2022-09-24T00:25:49.672Z,9.45
2022-09-24T00:30:51.619Z,9.41
2022-09-24T00:35:52.344Z,9.34
2022-09-24T00:40:53.379Z,9.36
2022-09-24T00:46:00.817Z,9.37
2022-09-24T00:51:03.910Z,9.39
2022-09-24T00:56:08.474Z,9.37
2022-09-24T01:01:09.303Z,9.25
2022-09-24T01:06:10.680Z,9.20
2022-09-24T01:14:08.284Z,9.20
2022-09-24T01:19:43.375Z,9.14
2022-09-24T01:26:55.876Z,9.13
2022-09-24T01:32:19.423Z,9.04
2022-09-24T01:37:22.123Z,8.92
2022-09-24T01:42:26.829Z,8.66
2022-09-24T01:47:39.305Z,8.62
2022-09-24T01:52:45.352Z,8.63
2022-09-24T01:57:51.492Z,8.57
2022-09-24T02:03:12.457Z,8.58
2022-09-24T02:08:19.773Z,8.53
2022-09-24T02:13:24.309Z,8.52
2022-09-24T02:18:31.166Z,8.49
2022-09-24T02:23:36.322Z,8.50
2022-09-24T02:28:37.253Z,8.41
2022-09-24T02:34:00.295Z,8.26
2022-09-24T02:39:02.419Z,8.17
2022-09-24T02:44:03.179Z,8.14
2022-09-24T02:49:04.070Z,8.06
2022-09-24T02:54:05.236Z,8.31
2022-09-24T02:59:07.023Z,8.24
2022-09-24T03:04:08.311Z,8.16
2022-09-24T03:09:12.106Z,8.21
2022-09-24T03:14:12.832Z,8.09
2022-09-24T03:19:13.775Z,8.12
2022-09-24T03:24:14.532Z,8.04
2022-09-24T03:29:15.503Z,8.25
2022-09-24T03:34:16.221Z,8.24
2022-09-24T03:39:17.045Z,8.18
2022-09-24T03:44:17.753Z,8.32
2022-09-24T03:49:18.547Z,8.37
2022-09-24T03:54:19.373Z,8.31
2022-09-24T03:59:20.277Z,8.65
2022-09-24T04:04:21.006Z,8.66
2022-09-24T04:09:21.773Z,8.55
2022-09-24T04:14:22.519Z,8.72
2022-09-24T04:19:23.613Z,8.73
2022-09-24T04:24:24.329Z,8.86
2022-09-24T04:29:25.198Z,8.74
2022-09-24T04:34:25.924Z,8.93
2022-09-24T04:39:27.057Z,8.93
2022-09-24T04:44:29.416Z,8.74
2022-09-24T04:49:30.215Z,8.72
2022-09-24T04:54:31.034Z,8.68
2022-09-24T04:59:31.938Z,8.90
2022-09-24T05:04:32.686Z,8.68
2022-09-24T05:09:34.269Z,8.63
2022-09-24T05:14:34.990Z,8.50
2022-09-24T05:19:35.906Z,8.63
2022-09-24T05:24:36.695Z,8.63
2022-09-24T05:29:39.325Z,8.72
2022-09-24T05:34:42.469Z,8.68
2022-09-24T05:39:43.365Z,8.76
2022-09-24T05:44:46.477Z,8.92
2022-09-24T05:49:48.262Z,9.09
2022-09-24T05:54:48.976Z,9.07
2022-09-24T05:59:49.992Z,9.12
2022-09-24T06:04:50.728Z,9.28
2022-09-24T06:09:51.509Z,9.38
2022-09-24T06:14:54.812Z,9.48
2022-09-24T06:19:57.275Z,9.62
2022-09-24T06:24:58.003Z,9.63
2022-09-24T06:29:58.895Z,9.61
2022-09-24T06:35:00.274Z,9.80
2022-09-24T06:40:01.594Z,9.79
2022-09-24T06:45:02.450Z,9.96
2022-09-24T06:50:04.213Z,10.03
2022-09-24T06:55:05.597Z,10.06
2022-09-24T07:00:07.580Z,10.36
2022-09-24T07:05:09.499Z,10.48
2022-09-24T07:10:10.290Z,10.92
2022-09-24T07:15:11.096Z,11.36
2022-09-24T07:20:11.928Z,11.88
2022-09-24T07:25:13.346Z,11.97
2022-09-24T07:30:14.274Z,11.96
2022-09-24T07:35:16.015Z,11.96
2022-09-24T07:40:17.399Z,11.99
2022-09-24T07:45:18.187Z,11.92
2022-09-24T07:50:19.213Z,11.92
2022-09-24T07:55:20.757Z,11.95
2022-09-24T08:00:23.539Z,12.07
2022-09-24T08:05:24.619Z,12.44
2022-09-24T08:10:27.540Z,12.72
2022-09-24T08:15:28.367Z,12.90
2022-09-24T08:20:29.950Z,13.36
2022-09-24T08:25:31.353Z,13.04
2022-09-24T08:30:33.387Z,13.14
2022-09-24T08:35:34.703Z,13.19
2022-09-24T08:40:52.971Z,12.86
2022-09-24T08:46:16.641Z,13.24
2022-09-24T08:51:21.462Z,13.13
2022-09-24T08:56:30.281Z,12.91
2022-09-24T09:01:45.424Z,13.07
2022-09-24T09:07:04.122Z,13.11
2022-09-24T09:12:11.959Z,13.14
2022-09-24T09:17:42.114Z,13.32
2022-09-24T09:22:49.143Z,13.43
2022-09-24T09:28:14.308Z,13.26
2022-09-24T09:37:00.025Z,13.18
2022-09-24T09:42:19.816Z,13.18
2022-09-24T09:47:57.540Z,13.57
2022-09-24T09:52:58.577Z,13.74
2022-09-24T09:58:21.477Z,13.90
2022-09-24T10:03:29.101Z,14.43
2022-09-24T10:08:31.158Z,14.54
2022-09-24T10:13:31.923Z,14.66
2022-09-24T10:18:35.454Z,14.61
2022-09-24T10:23:42.777Z,15.00
2022-09-24T10:29:07.865Z,15.29
2022-09-24T10:34:26.021Z,15.13
2022-09-24T10:39:27.528Z,14.58
2022-09-24T10:44:37.707Z,14.38
2022-09-24T10:50:15.992Z,14.30
2022-09-24T10:56:51.202Z,14.45
2022-09-24T11:03:53.105Z,14.58
2022-09-24T11:09:09.529Z,14.79
2022-09-24T11:14:35.007Z,14.74
2022-09-24T11:20:00.974Z,14.93
2022-09-24T11:27:01.105Z,14.63
2022-09-24T11:34:12.454Z,14.73
2022-09-24T11:43:58.944Z,14.41
2022-09-24T11:49:37.064Z,14.22
2022-09-24T11:55:01.562Z,14.27
2022-09-24T12:00:09.425Z,14.70
2022-09-24T12:08:46.588Z,15.36
2022-09-24T12:13:57.276Z,15.62
2022-09-24T12:19:07.195Z,15.59
2022-09-24T12:24:27.322Z,15.17
2022-09-24T12:30:08.884Z,15.42
2022-09-24T12:36:56.996Z,15.50
2022-09-24T12:42:02.641Z,15.43
2022-09-24T12:47:03.769Z,15.25
2022-09-24T12:52:18.157Z,15.28
2022-09-24T12:57:25.506Z,14.85
2022-09-24T13:02:48.292Z,14.88
2022-09-24T13:08:38.023Z,14.85
2022-09-24T13:13:44.210Z,14.66
2022-09-24T13:19:01.607Z,14.75
2022-09-24T13:24:10.925Z,14.64
2022-09-24T13:29:24.374Z,14.76
2022-09-24T13:34:28.186Z,14.71
2022-09-24T13:39:36.255Z,14.67
2022-09-24T13:44:43.022Z,14.64
2022-09-24T13:49:47.179Z,14.61
2022-09-24T13:54:52.526Z,14.71
2022-09-24T14:00:23.633Z,14.71
2022-09-24T14:05:26.747Z,15.02
2022-09-24T14:10:27.783Z,14.95
2022-09-24T14:15:28.831Z,15.15
2022-09-24T14:20:34.467Z,15.11
2022-09-24T14:25:38.962Z,15.24
2022-09-24T14:30:50.625Z,16.06
2022-09-24T14:35:55.243Z,15.63
2022-09-24T14:41:05.574Z,15.44
2022-09-24T14:46:15.194Z,15.24
2022-09-24T14:51:30.006Z,14.77
2022-09-24T14:56:32.891Z,14.46
2022-09-24T15:01:33.796Z,14.44
2022-09-24T15:06:36.667Z,14.50
2022-09-24T15:11:43.381Z,14.50
2022-09-24T15:16:50.152Z,14.46
2022-09-24T15:21:54.707Z,14.51
2022-09-24T15:27:04.167Z,14.41
2022-09-24T15:32:14.958Z,14.35
2022-09-24T15:37:19.552Z,13.85
2022-09-24T15:42:22.775Z,13.37
2022-09-24T15:47:23.633Z,12.66
2022-09-24T15:52:28.488Z,12.47
2022-09-24T15:57:29.499Z,12.44
2022-09-24T16:02:32.414Z,12.49
2022-09-24T16:07:33.209Z,12.34
2022-09-24T16:12:34.071Z,12.44
2022-09-24T16:17:34.841Z,12.45
2022-09-24T16:22:35.801Z,12.02
2022-09-24T16:27:36.750Z,11.87
2022-09-24T16:32:37.520Z,11.80
2022-09-24T16:37:39.681Z,11.84
2022-09-24T16:42:40.433Z,11.80
2022-09-24T16:47:41.197Z,11.67
2022-09-24T16:52:45.162Z,11.71
2022-09-24T16:57:45.958Z,11.78
2022-09-24T17:02:46.945Z,11.82
2022-09-24T17:07:47.907Z,11.76
2022-09-24T17:12:50.427Z,11.70
2022-09-24T17:17:51.295Z,11.72
2022-09-24T17:22:52.750Z,11.75
2022-09-24T17:27:53.470Z,11.66
2022-09-24T17:32:54.398Z,11.43
2022-09-24T17:37:55.135Z,11.35
2022-09-24T17:42:56.095Z,11.47
2022-09-24T17:47:56.869Z,11.47
2022-09-24T17:52:57.879Z,11.41
2022-09-24T17:57:58.709Z,11.35
2022-09-24T18:02:59.596Z,11.37
2022-09-24T18:08:00.661Z,11.40
2022-09-24T18:13:01.991Z,11.45
2022-09-24T18:18:03.368Z,11.42
2022-09-24T18:23:04.869Z,11.47
2022-09-24T18:28:07.907Z,11.46
2022-09-24T18:33:08.989Z,11.52
2022-09-24T18:38:09.737Z,11.61
2022-09-24T18:43:10.571Z,11.56
2022-09-24T18:48:11.324Z,11.55
2022-09-24T18:53:12.172Z,11.61
2022-09-24T18:58:12.940Z,11.63
2022-09-24T19:03:14.330Z,11.60
2022-09-24T19:08:15.785Z,11.61
2022-09-24T19:13:16.845Z,11.58
2022-09-24T19:18:17.610Z,11.60
2022-09-24T19:23:18.519Z,11.59
2022-09-24T19:28:19.396Z,11.61
2022-09-24T19:33:20.257Z,11.61
2022-09-24T19:38:22.484Z,11.60
2022-09-24T19:43:23.809Z,11.52
2022-09-24T19:48:29.150Z,11.46
2022-09-24T19:53:30.638Z,11.48
2022-09-24T19:58:32.191Z,11.52
2022-09-24T20:03:34.836Z,11.48
2022-09-24T20:08:36.120Z,11.35
2022-09-24T20:13:45.605Z,11.39
2022-09-24T20:18:50.894Z,11.39
2022-09-24T20:23:54.280Z,11.48
2022-09-24T20:28:55.094Z,11.46
2022-09-24T20:33:55.880Z,11.36
2022-09-24T20:38:57.860Z,11.40
2022-09-24T20:43:58.600Z,11.32
2022-09-24T20:49:00.187Z,11.40
2022-09-24T20:54:01.869Z,11.36
2022-09-24T20:59:02.710Z,11.37
2022-09-24T21:04:03.620Z,11.47
2022-09-24T21:09:04.513Z,11.47
2022-09-24T21:14:10.251Z,11.36
2022-09-24T21:19:13.529Z,11.25
2022-09-24T21:24:15.047Z,11.20
2022-09-24T21:29:19.789Z,11.26
2022-09-24T21:34:20.589Z,11.21
2022-09-24T21:39:23.091Z,11.19
2022-09-24T21:44:24.454Z,11.16
2022-09-24T21:49:25.763Z,11.17
2022-09-24T21:54:26.787Z,10.99
2022-09-24T21:59:45.718Z,11.08
2022-09-24T22:04:47.083Z,10.96
2022-09-24T22:09:49.216Z,11.05
2022-09-24T22:14:51.677Z,11.02
2022-09-24T22:19:52.408Z,10.97
2022-09-24T22:24:53.423Z,10.99
2022-09-24T22:29:54.150Z,10.92
2022-09-24T22:35:13.315Z,11.01
2022-09-24T22:40:14.482Z,10.96
2022-09-24T22:45:15.453Z,10.92
2022-09-24T22:50:16.187Z,10.91
2022-09-24T22:55:17.377Z,10.90
2022-09-24T23:00:18.223Z,10.77
2022-09-24T23:05:19.094Z,10.81
2022-09-24T23:10:19.899Z,10.84
2022-09-24T23:15:20.782Z,10.88
2022-09-24T23:20:21.937Z,10.91
2022-09-24T23:25:22.951Z,10.76
2022-09-24T23:30:23.780Z,10.66
2022-09-24T23:35:24.606Z,10.61
2022-09-24T23:40:25.865Z,10.63
2022-09-24T23:45:27.004Z,10.61
2022-09-24T23:50:27.749Z,10.66
2022-09-24T23:55:28.655Z,10.84
